createdAt,value
2017-04-03T07:01:10.779Z,1009.86
2017-04-03T07:02:10.858Z,1009.83
2017-04-03T07:03:10.855Z,1009.85
2017-04-03T07:04:10.893Z,1009.86
2017-04-03T07:05:10.931Z,1009.89
2017-04-03T07:06:10.968Z,1009.92
2017-04-03T07:07:11.007Z,1009.88
2017-04-03T07:08:11.045Z,1009.91
2017-04-03T07:09:11.084Z,1009.96
2017-04-03T07:10:11.125Z,1009.96
2017-04-03T07:11:11.162Z,1009.96
2017-04-03T07:12:11.200Z,1010
2017-04-03T07:13:11.237Z,1009.98
2017-04-03T07:14:11.275Z,1009.99
2017-04-03T07:15:11.313Z,1009.99
2017-04-03T07:16:11.353Z,1010.07
2017-04-03T07:17:11.391Z,1010.08
2017-04-03T07:18:11.431Z,1010.09
2017-04-03T07:19:11.469Z,1010.11
2017-04-03T07:20:11.508Z,1010.09
2017-04-03T07:21:11.546Z,1010.16
2017-04-03T07:22:11.586Z,1010.17
2017-04-03T07:23:11.626Z,1010.21
2017-04-03T07:24:11.663Z,1010.18
2017-04-03T07:25:11.705Z,1010.18
2017-04-03T07:26:11.744Z,1010.22
2017-04-03T07:27:11.785Z,1010.23
2017-04-03T07:28:11.824Z,1010.27
2017-04-03T07:29:11.866Z,1010.24
2017-04-03T07:30:11.905Z,1010.27
2017-04-03T07:31:11.980Z,1010.27
2017-04-03T07:32:12.035Z,1010.28
2017-04-03T07:33:12.026Z,1010.29
2017-04-03T07:34:12.068Z,1010.3
2017-04-03T07:35:12.106Z,1010.32
2017-04-03T07:36:12.147Z,1010.38
2017-04-03T07:37:12.187Z,1010.35
2017-04-03T07:38:12.227Z,1010.44
2017-04-03T07:39:12.266Z,1010.44
2017-04-03T07:40:12.307Z,1010.45
2017-04-03T07:41:12.348Z,1010.46
2017-04-03T07:42:12.387Z,1010.49
2017-04-03T07:43:12.428Z,1010.5
2017-04-03T07:44:12.469Z,1010.49
2017-04-03T07:45:12.506Z,1010.44
2017-04-03T07:46:12.546Z,1010.47
2017-04-03T07:47:12.588Z,1010.46
2017-04-03T07:48:12.624Z,1010.44
2017-04-03T07:49:12.664Z,1010.49
2017-04-03T07:50:12.702Z,1010.48
2017-04-03T07:51:12.742Z,1010.52
2017-04-03T07:52:12.782Z,1010.48
2017-04-03T07:53:12.820Z,1010.47
2017-04-03T07:54:12.859Z,1010.48
2017-04-03T07:55:12.898Z,1010.5
2017-04-03T07:56:12.937Z,1010.48
2017-04-03T07:57:12.976Z,1010.49
2017-04-03T07:58:13.015Z,1010.49
2017-04-03T07:59:13.054Z,1010.5
2017-04-03T08:00:13.093Z,1010.49
2017-04-03T08:01:13.134Z,1010.54
2017-04-03T08:02:13.173Z,1010.52
2017-04-03T08:03:13.211Z,1010.54
2017-04-03T08:04:13.250Z,1010.48
2017-04-03T08:05:13.289Z,1010.51
2017-04-03T08:06:13.330Z,1010.5
2017-04-03T08:07:13.370Z,1010.49
2017-04-03T08:08:13.410Z,1010.46
2017-04-03T08:09:13.449Z,1010.5
2017-04-03T08:10:13.490Z,1010.48
2017-04-03T08:11:13.530Z,1010.49
2017-04-03T08:12:13.610Z,1010.5
2017-04-03T08:13:13.609Z,1010.52
2017-04-03T08:14:13.652Z,1010.51
2017-04-03T08:15:13.690Z,1010.52
2017-04-03T08:16:13.729Z,1010.54
2017-04-03T08:17:13.768Z,1010.53
2017-04-03T08:18:13.812Z,1010.48
2017-04-03T08:19:13.849Z,1010.5
2017-04-03T08:20:13.890Z,1010.49
2017-04-03T08:21:13.937Z,1010.56
2017-04-03T08:22:13.971Z,1010.52
2017-04-03T08:23:14.013Z,1010.54
2017-04-03T08:24:14.053Z,1010.58
2017-04-03T08:25:14.095Z,1010.61
2017-04-03T08:26:14.136Z,1010.6
2017-04-03T08:27:14.178Z,1010.6
2017-04-03T08:28:14.222Z,1010.59
2017-04-03T08:29:14.263Z,1010.62
2017-04-03T08:30:14.303Z,1010.67
2017-04-03T08:31:14.344Z,1010.59
2017-04-03T08:32:14.395Z,1010.6
2017-04-03T08:33:14.431Z,1010.57
2017-04-03T08:34:14.474Z,1010.62
2017-04-03T08:35:14.518Z,1010.6
2017-04-03T08:36:14.560Z,1010.65
2017-04-03T08:37:14.603Z,1010.62
2017-04-03T08:38:14.646Z,1010.68
2017-04-03T08:39:14.689Z,1010.62
2017-04-03T08:40:14.734Z,1010.64
2017-04-03T08:41:14.773Z,1010.67
2017-04-03T08:42:14.817Z,1010.64
2017-04-03T08:43:14.869Z,1010.62
2017-04-03T08:44:14.907Z,1010.62
2017-04-03T08:45:14.950Z,1010.63
2017-04-03T08:46:15.005Z,1010.62
2017-04-03T08:47:15.040Z,1010.65
2017-04-03T08:48:15.082Z,1010.65
2017-04-03T08:49:15.142Z,1010.65
2017-04-03T08:50:15.170Z,1010.66
2017-04-03T08:51:15.232Z,1010.67
2017-04-03T08:52:15.259Z,1010.62
2017-04-03T08:53:15.304Z,1010.61
2017-04-03T08:54:15.346Z,1010.62
2017-04-03T08:55:15.390Z,1010.64
2017-04-03T08:56:15.438Z,1010.64
2017-04-03T08:57:15.476Z,1010.64
2017-04-03T08:58:15.632Z,1010.64
2017-04-03T08:59:15.668Z,1010.67
2017-04-03T09:00:15.629Z,1010.68
2017-04-03T09:01:15.644Z,1010.68
2017-04-03T09:02:15.688Z,1010.69
2017-04-03T09:03:15.728Z,1010.66
2017-04-03T09:04:15.770Z,1010.65
2017-04-03T09:05:15.815Z,1010.66
2017-04-03T09:06:15.857Z,1010.65
2017-04-03T09:07:15.899Z,1010.67
2017-04-03T09:08:15.939Z,1010.67
2017-04-03T09:09:15.985Z,1010.63
2017-04-03T09:10:16.024Z,1010.65
2017-04-03T09:11:16.067Z,1010.69
2017-04-03T09:12:16.107Z,1010.7
2017-04-03T09:13:16.151Z,1010.7
2017-04-03T09:14:16.192Z,1010.67
2017-04-03T09:15:16.234Z,1010.65
2017-04-03T09:16:16.277Z,1010.66
2017-04-03T09:17:16.315Z,1010.69
2017-04-03T09:18:16.359Z,1010.69
2017-04-03T09:19:16.402Z,1010.68
2017-04-03T09:20:16.445Z,1010.65
2017-04-03T09:21:16.485Z,1010.66
2017-04-03T09:22:16.528Z,1010.7
2017-04-03T09:23:16.571Z,1010.67
2017-04-03T09:24:16.624Z,1010.72
2017-04-03T09:25:16.659Z,1010.72
2017-04-03T09:26:16.701Z,1010.68
2017-04-03T09:27:16.746Z,1010.72
2017-04-03T09:28:16.793Z,1010.69
2017-04-03T09:29:16.837Z,1010.68
2017-04-03T09:30:16.883Z,1010.64
2017-04-03T09:31:16.928Z,1010.67
2017-04-03T09:32:16.974Z,1010.71
2017-04-03T09:33:17.016Z,1010.66
2017-04-03T09:34:17.061Z,1010.66
2017-04-03T09:35:17.106Z,1010.7
2017-04-03T09:36:17.151Z,1010.67
2017-04-03T09:37:17.199Z,1010.7
2017-04-03T09:38:17.242Z,1010.65
2017-04-03T09:39:17.285Z,1010.7
2017-04-03T09:40:17.331Z,1010.72
2017-04-03T09:41:17.375Z,1010.68
2017-04-03T09:42:17.420Z,1010.76
2017-04-03T09:43:17.464Z,1010.76
2017-04-03T09:44:17.511Z,1010.71
2017-04-03T09:45:17.555Z,1010.71
2017-04-03T09:46:17.601Z,1010.69
2017-04-03T09:47:17.645Z,1010.7
2017-04-03T09:48:17.716Z,1010.69
2017-04-03T09:49:17.749Z,1010.68
2017-04-03T09:50:17.781Z,1010.7
2017-04-03T09:51:17.831Z,1010.67
2017-04-03T09:52:17.874Z,1010.7
2017-04-03T09:53:17.922Z,1010.7
2017-04-03T09:54:18.670Z,1010.77
2017-04-03T09:55:18.013Z,1010.79
2017-04-03T09:56:18.060Z,1010.8
2017-04-03T09:57:18.104Z,1010.74
2017-04-03T09:58:18.151Z,1010.83
2017-04-03T09:59:18.200Z,1010.82
2017-04-03T10:00:18.250Z,1010.85
2017-04-03T10:01:18.298Z,1010.79
2017-04-03T10:02:18.400Z,1010.81
2017-04-03T10:03:18.397Z,1010.81
2017-04-03T10:04:18.445Z,1010.83
2017-04-03T10:05:18.491Z,1010.81
2017-04-03T10:06:18.542Z,1010.84
2017-04-03T10:07:18.594Z,1010.76
2017-04-03T10:08:18.641Z,1010.8
2017-04-03T10:09:18.692Z,1010.83
2017-04-03T10:10:18.742Z,1010.77
2017-04-03T10:11:18.791Z,1010.8
2017-04-03T10:12:18.840Z,1010.81
2017-04-03T10:13:18.893Z,1010.87
2017-04-03T10:14:18.941Z,1010.8
2017-04-03T10:15:18.991Z,1010.82
2017-04-03T10:16:19.041Z,1010.78
2017-04-03T10:17:19.090Z,1010.83
2017-04-03T10:18:19.136Z,1010.75
2017-04-03T10:19:19.185Z,1010.78
2017-04-03T10:20:19.235Z,1010.78
2017-04-03T10:21:19.281Z,1010.79
2017-04-03T10:22:19.396Z,1010.81
2017-04-03T10:23:19.377Z,1010.81
2017-04-03T10:24:19.424Z,1010.75
2017-04-03T10:25:19.472Z,1010.78
2017-04-03T10:26:19.523Z,1010.72
2017-04-03T10:27:19.566Z,1010.8
2017-04-03T10:28:19.618Z,1010.84
2017-04-03T10:29:19.664Z,1010.85
2017-04-03T10:30:19.710Z,1010.74
2017-04-03T10:31:19.761Z,1010.82
2017-04-03T10:32:19.807Z,1010.83
2017-04-03T10:33:19.856Z,1010.81
2017-04-03T10:34:19.904Z,1010.83
2017-04-03T10:35:19.954Z,1010.73
2017-04-03T10:36:20.001Z,1010.75
2017-04-03T10:37:20.053Z,1010.72
2017-04-03T10:38:20.100Z,1010.81
2017-04-03T10:39:20.150Z,1010.8
2017-04-03T10:40:20.196Z,1010.81
2017-04-03T10:41:20.246Z,1010.84
2017-04-03T10:42:20.305Z,1010.87
2017-04-03T10:43:20.347Z,1010.87
2017-04-03T10:44:20.395Z,1010.82
2017-04-03T10:45:20.446Z,1010.78
2017-04-03T10:46:20.494Z,1010.77
2017-04-03T10:47:20.543Z,1010.79
2017-04-03T10:48:20.594Z,1010.78
2017-04-03T10:49:20.641Z,1010.96
2017-04-03T10:50:20.690Z,1010.86
2017-04-03T10:51:20.739Z,1010.88
2017-04-03T10:52:20.789Z,1010.8
2017-04-03T10:53:20.838Z,1010.85
2017-04-03T10:54:20.886Z,1010.88
2017-04-03T10:55:20.933Z,1010.99
2017-04-03T10:56:20.981Z,1010.99
2017-04-03T10:57:21.027Z,1010.96
2017-04-03T10:58:21.078Z,1010.98
2017-04-03T10:59:21.129Z,1010.89
2017-04-03T11:00:21.178Z,1010.92
2017-04-03T11:01:21.223Z,1010.88
2017-04-03T11:02:21.275Z,1010.92
2017-04-03T11:03:21.321Z,1010.91
2017-04-03T11:04:21.370Z,1010.94
2017-04-03T11:05:21.419Z,1010.95
2017-04-03T11:06:21.469Z,1010.98
2017-04-03T11:07:21.514Z,1010.87
2017-04-03T11:08:21.562Z,1010.87
2017-04-03T11:09:21.613Z,1010.84
2017-04-03T11:10:21.662Z,1010.89
2017-04-03T11:11:21.704Z,1010.87
2017-04-03T11:12:21.751Z,1010.91
2017-04-03T11:13:21.801Z,1011.01
2017-04-03T11:14:21.845Z,1010.97
2017-04-03T11:15:21.891Z,1011.02
2017-04-03T11:16:21.960Z,1010.99
2017-04-03T11:17:21.986Z,1011.01
2017-04-03T11:18:22.034Z,1011.02
2017-04-03T11:19:22.080Z,1010.98
2017-04-03T11:20:22.129Z,1011.05
2017-04-03T11:21:22.174Z,1011.01
2017-04-03T11:22:22.225Z,1011.06
2017-04-03T11:23:22.268Z,1011.02
2017-04-03T11:24:22.317Z,1011
2017-04-03T11:25:22.363Z,1011
2017-04-03T11:26:22.410Z,1011.02
2017-04-03T11:27:22.460Z,1011.04
2017-04-03T11:28:22.506Z,1010.95
2017-04-03T11:29:22.552Z,1010.97
2017-04-03T11:30:22.601Z,1011
2017-04-03T11:31:22.647Z,1010.85
2017-04-03T11:32:22.694Z,1010.85
2017-04-03T11:33:22.737Z,1010.83
2017-04-03T11:34:22.785Z,1010.86
2017-04-03T11:35:22.831Z,1010.81
2017-04-03T11:36:22.875Z,1010.76
2017-04-03T11:37:22.924Z,1010.81
2017-04-03T11:38:22.967Z,1010.88
2017-04-03T11:39:23.018Z,1010.86
2017-04-03T11:40:23.057Z,1010.8
2017-04-03T11:41:23.100Z,1010.81
2017-04-03T11:42:23.147Z,1010.83
2017-04-03T11:43:23.192Z,1010.76
2017-04-03T11:44:23.234Z,1010.73
2017-04-03T11:45:23.347Z,1010.78
2017-04-03T11:46:23.324Z,1010.79
2017-04-03T11:47:23.382Z,1010.78
2017-04-03T11:48:23.413Z,1010.74
2017-04-03T11:49:23.487Z,1010.8
2017-04-03T11:50:23.501Z,1010.77
2017-04-03T11:51:23.545Z,1010.85
2017-04-03T11:52:23.589Z,1010.75
2017-04-03T11:53:23.635Z,1010.76
2017-04-03T11:54:23.679Z,1010.77
2017-04-03T11:55:23.723Z,1010.79
2017-04-03T11:56:23.764Z,1010.79
2017-04-03T11:57:23.818Z,1010.77
2017-04-03T11:58:23.851Z,1010.74
2017-04-03T11:59:23.894Z,1010.74
2017-04-03T12:00:23.940Z,1010.73
2017-04-03T12:01:23.981Z,1010.72
2017-04-03T12:02:24.023Z,1010.73
2017-04-03T12:03:24.068Z,1010.67
2017-04-03T12:04:24.111Z,1010.67
2017-04-03T12:05:24.152Z,1010.68
2017-04-03T12:06:24.197Z,1010.64
2017-04-03T12:07:24.238Z,1010.63
2017-04-03T12:08:24.282Z,1010.61
2017-04-03T12:09:24.323Z,1010.64
2017-04-03T12:10:24.367Z,1010.63
2017-04-03T12:11:24.408Z,1010.65
2017-04-03T12:12:24.449Z,1010.65
2017-04-03T12:13:24.491Z,1010.65
2017-04-03T12:14:24.543Z,1010.68
2017-04-03T12:15:24.581Z,1010.62
2017-04-03T12:16:24.619Z,1010.66
2017-04-03T12:17:24.663Z,1010.64
2017-04-03T12:18:24.703Z,1010.6
2017-04-03T12:19:24.749Z,1010.62
2017-04-03T12:20:24.787Z,1010.63
2017-04-03T12:21:24.831Z,1010.63
2017-04-03T12:22:24.874Z,1010.59
2017-04-03T12:23:24.918Z,1010.59
2017-04-03T12:24:24.961Z,1010.59
2017-04-03T12:25:24.997Z,1010.59
2017-04-03T12:26:25.040Z,1010.58
2017-04-03T12:27:25.081Z,1010.62
2017-04-03T12:28:25.124Z,1010.63
2017-04-03T12:29:25.163Z,1010.6
2017-04-03T12:30:25.206Z,1010.58
2017-04-03T12:31:25.248Z,1010.67
2017-04-03T12:32:25.287Z,1010.59
2017-04-03T12:33:25.329Z,1010.61
2017-04-03T12:34:25.371Z,1010.51
2017-04-03T12:35:25.413Z,1010.56
2017-04-03T12:36:25.456Z,1010.53
2017-04-03T12:37:25.497Z,1010.46
2017-04-03T12:38:25.540Z,1010.51
2017-04-03T12:39:25.579Z,1010.54
2017-04-03T12:40:25.621Z,1010.57
2017-04-03T12:41:25.664Z,1010.44
2017-04-03T12:42:25.700Z,1010.52
2017-04-03T12:43:25.745Z,1010.57
2017-04-03T12:44:25.784Z,1010.57
2017-04-03T12:45:25.828Z,1010.58
2017-04-03T12:46:25.868Z,1010.59
2017-04-03T12:47:25.917Z,1010.59
2017-04-03T12:48:25.950Z,1010.58
2017-04-03T12:49:25.990Z,1010.58
2017-04-03T12:50:26.032Z,1010.63
2017-04-03T12:51:26.070Z,1010.59
2017-04-03T12:52:26.114Z,1010.56
2017-04-03T12:53:26.153Z,1010.51
2017-04-03T12:54:26.193Z,1010.55
2017-04-03T12:55:26.238Z,1010.58
2017-04-03T12:56:26.274Z,1010.54
2017-04-03T12:57:26.350Z,1010.56
2017-04-03T12:58:26.357Z,1010.5
2017-04-03T12:59:26.395Z,1010.54
2017-04-03T13:00:26.436Z,1010.6
2017-04-03T13:01:26.475Z,1010.58
2017-04-03T13:02:26.517Z,1010.52
2017-04-03T13:03:26.557Z,1010.54
2017-04-03T13:04:26.597Z,1010.5
2017-04-03T13:05:26.640Z,1010.48
2017-04-03T13:06:26.680Z,1010.51
2017-04-03T13:07:26.720Z,1010.46
2017-04-03T13:08:26.760Z,1010.47
2017-04-03T13:09:26.799Z,1010.39
2017-04-03T13:10:26.842Z,1010.44
2017-04-03T13:11:26.886Z,1010.44
2017-04-03T13:12:26.945Z,1010.39
2017-04-03T13:13:27.021Z,1010.39
2017-04-03T13:14:27.001Z,1010.37
2017-04-03T13:15:27.042Z,1010.31
2017-04-03T13:16:27.081Z,1010.3
2017-04-03T13:17:27.122Z,1010.31
2017-04-03T13:18:27.162Z,1010.36
2017-04-03T13:19:27.201Z,1010.35
2017-04-03T13:20:27.242Z,1010.37
2017-04-03T13:21:27.283Z,1010.34
2017-04-03T13:22:27.322Z,1010.32
2017-04-03T13:23:27.363Z,1010.34
2017-04-03T13:24:27.403Z,1010.35
2017-04-03T13:25:27.443Z,1010.3
2017-04-03T13:26:27.482Z,1010.34
2017-04-03T13:27:27.524Z,1010.35
2017-04-03T13:28:27.565Z,1010.32
2017-04-03T13:29:27.604Z,1010.33
2017-04-03T13:30:27.646Z,1010.33
2017-04-03T13:31:27.819Z,1010.33
2017-04-03T13:32:27.730Z,1010.29
2017-04-03T13:33:27.765Z,1010.32
2017-04-03T13:34:27.805Z,1010.33
2017-04-03T13:35:27.847Z,1010.3
2017-04-03T13:36:27.891Z,1010.26
2017-04-03T13:37:27.924Z,1010.34
2017-04-03T13:38:27.965Z,1010.3
2017-04-03T13:39:28.007Z,1010.29
2017-04-03T13:40:28.048Z,1010.27
2017-04-03T13:41:28.085Z,1010.31
2017-04-03T13:42:28.128Z,1010.29
2017-04-03T13:43:28.169Z,1010.31
2017-04-03T13:44:28.229Z,1010.29
2017-04-03T13:45:28.250Z,1010.29
2017-04-03T13:46:28.299Z,1010.31
2017-04-03T13:47:28.330Z,1010.29
2017-04-03T13:48:28.368Z,1010.24
2017-04-03T13:49:28.406Z,1010.24
2017-04-03T13:50:28.449Z,1010.23
2017-04-03T13:51:28.490Z,1010.25
2017-04-03T13:52:28.528Z,1010.23
2017-04-03T13:53:28.570Z,1010.22
2017-04-03T13:54:28.612Z,1010.28
2017-04-03T13:55:28.648Z,1010.28
2017-04-03T13:56:28.689Z,1010.3
2017-04-03T13:57:28.731Z,1010.29
2017-04-03T13:58:28.771Z,1010.32
2017-04-03T13:59:28.809Z,1010.3
2017-04-03T14:00:28.853Z,1010.31
2017-04-03T14:01:28.893Z,1010.29
2017-04-03T14:02:28.933Z,1010.31
2017-04-03T14:03:28.974Z,1010.31
2017-04-03T14:04:29.020Z,1010.28
2017-04-03T14:05:29.051Z,1010.29
2017-04-03T14:06:29.091Z,1010.32
2017-04-03T14:07:29.131Z,1010.32
2017-04-03T14:08:29.173Z,1010.28
2017-04-03T14:09:29.214Z,1010.32
2017-04-03T14:10:29.252Z,1010.3
2017-04-03T14:11:29.295Z,1010.36
2017-04-03T14:12:29.332Z,1010.29
2017-04-03T14:13:29.373Z,1010.28
2017-04-03T14:14:29.414Z,1010.29
2017-04-03T14:15:29.452Z,1010.3
2017-04-03T14:16:29.495Z,1010.29
2017-04-03T14:17:29.531Z,1010.32
2017-04-03T14:18:29.571Z,1010.29
2017-04-03T14:19:29.613Z,1010.28
2017-04-03T14:20:29.711Z,1010.31
2017-04-03T14:21:29.690Z,1010.28
2017-04-03T14:22:29.730Z,1010.33
2017-04-03T14:23:29.772Z,1010.26
2017-04-03T14:24:29.811Z,1010.27
2017-04-03T14:25:29.852Z,1010.31
2017-04-03T14:26:29.929Z,1010.3
2017-04-03T14:27:29.977Z,1010.32
2017-04-03T14:28:29.971Z,1010.34
2017-04-03T14:29:30.013Z,1010.36
2017-04-03T14:30:30.051Z,1010.33
2017-04-03T14:31:30.089Z,1010.29
2017-04-03T14:32:30.131Z,1010.36
2017-04-03T14:33:30.169Z,1010.37
2017-04-03T14:34:30.211Z,1010.31
2017-04-03T14:35:30.249Z,1010.37
2017-04-03T14:36:30.291Z,1010.32
2017-04-03T14:37:30.330Z,1010.32
2017-04-03T14:38:30.367Z,1010.32
2017-04-03T14:39:30.406Z,1010.34
2017-04-03T14:40:30.448Z,1010.33
2017-04-03T14:41:30.486Z,1010.34
2017-04-03T14:42:30.529Z,1010.36
2017-04-03T14:43:30.565Z,1010.36
2017-04-03T14:44:30.607Z,1010.36
2017-04-03T14:45:30.645Z,1010.34
2017-04-03T14:46:30.685Z,1010.34
2017-04-03T14:47:30.725Z,1010.33
2017-04-03T14:48:30.764Z,1010.34
2017-04-03T14:49:30.806Z,1010.33
2017-04-03T14:50:30.843Z,1010.35
2017-04-03T14:51:30.885Z,1010.32
2017-04-03T14:52:30.924Z,1010.34
2017-04-03T14:53:30.961Z,1010.36
2017-04-03T14:54:31.005Z,1010.32
2017-04-03T14:55:31.044Z,1010.31
2017-04-03T14:56:31.080Z,1010.32
2017-04-03T14:57:31.119Z,1010.3
2017-04-03T14:58:31.161Z,1010.27
2017-04-03T14:59:31.200Z,1010.32
2017-04-03T15:00:31.240Z,1010.34
2017-04-03T15:01:31.279Z,1010.34
2017-04-03T15:02:31.317Z,1010.33
2017-04-03T15:03:31.358Z,1010.32
2017-04-03T15:04:31.398Z,1010.3
2017-04-03T15:05:31.437Z,1010.37
2017-04-03T15:06:31.476Z,1010.37
2017-04-03T15:07:31.516Z,1010.4
2017-04-03T15:08:31.553Z,1010.38
2017-04-03T15:09:31.593Z,1010.37
2017-04-03T15:10:31.644Z,1010.37
2017-04-03T15:11:31.683Z,1010.44
2017-04-03T15:12:31.715Z,1010.37
2017-04-03T15:13:31.751Z,1010.45
2017-04-03T15:14:31.790Z,1010.38
2017-04-03T15:15:31.834Z,1010.42
2017-04-03T15:16:31.871Z,1010.46
2017-04-03T15:17:31.911Z,1010.42
2017-04-03T15:18:31.949Z,1010.43
2017-04-03T15:19:31.989Z,1010.42
2017-04-03T15:20:32.029Z,1010.4
2017-04-03T15:21:32.066Z,1010.4
2017-04-03T15:22:32.109Z,1010.42
2017-04-03T15:23:32.147Z,1010.45
2017-04-03T15:24:32.187Z,1010.45
2017-04-03T15:25:32.225Z,1010.43
2017-04-03T15:26:32.265Z,1010.43
2017-04-03T15:27:32.304Z,1010.41
2017-04-03T15:28:32.344Z,1010.45
2017-04-03T15:29:32.384Z,1010.46
2017-04-03T15:30:32.424Z,1010.47
2017-04-03T15:31:32.464Z,1010.49
2017-04-03T15:32:32.501Z,1010.53
2017-04-03T15:33:32.542Z,1010.47
2017-04-03T15:34:32.582Z,1010.5
2017-04-03T15:35:33.806Z,1010.49
2017-04-03T15:36:32.662Z,1010.52
2017-04-03T15:37:32.702Z,1010.51
2017-04-03T15:38:32.741Z,1010.53
2017-04-03T15:39:32.780Z,1010.56
2017-04-03T15:40:32.817Z,1010.5
2017-04-03T15:41:32.859Z,1010.53
2017-04-03T15:42:32.898Z,1010.49
2017-04-03T15:43:32.938Z,1010.44
2017-04-03T15:44:32.976Z,1010.48
2017-04-03T15:45:33.017Z,1010.49
2017-04-03T15:46:33.054Z,1010.5
2017-04-03T15:47:33.094Z,1010.55
2017-04-03T15:48:33.135Z,1010.51
2017-04-03T15:49:33.180Z,1010.52
2017-04-03T15:50:33.214Z,1010.56
2017-04-03T15:51:33.253Z,1010.53
2017-04-03T15:52:33.290Z,1010.53
2017-04-03T15:53:33.330Z,1010.55
2017-04-03T15:54:33.371Z,1010.51
2017-04-03T15:55:33.409Z,1010.55
2017-04-03T15:56:33.448Z,1010.53
2017-04-03T15:57:33.490Z,1010.5
2017-04-03T15:58:33.527Z,1010.51
2017-04-03T15:59:33.568Z,1010.49
2017-04-03T16:00:33.605Z,1010.48
2017-04-03T16:01:33.644Z,1010.48
2017-04-03T16:02:33.683Z,1010.44
2017-04-03T16:03:33.721Z,1010.48
2017-04-03T16:04:33.761Z,1010.4
2017-04-03T16:05:33.803Z,1010.46
2017-04-03T16:06:33.840Z,1010.43
2017-04-03T16:07:33.878Z,1010.44
2017-04-03T16:08:33.917Z,1010.4
2017-04-03T16:09:33.957Z,1010.4
2017-04-03T16:10:34.008Z,1010.39
2017-04-03T16:11:34.035Z,1010.38
2017-04-03T16:12:34.073Z,1010.4
2017-04-03T16:13:34.113Z,1010.4
2017-04-03T16:14:34.151Z,1010.35
2017-04-03T16:15:34.193Z,1010.39
2017-04-03T16:16:34.230Z,1010.37
2017-04-03T16:17:34.269Z,1010.39
2017-04-03T16:18:34.309Z,1010.37
2017-04-03T16:19:34.346Z,1010.38
2017-04-03T16:20:34.385Z,1010.34
2017-04-03T16:21:34.425Z,1010.35
2017-04-03T16:22:34.465Z,1010.28
2017-04-03T16:23:34.502Z,1010.3
2017-04-03T16:24:34.542Z,1010.28
2017-04-03T16:25:34.580Z,1010.26
2017-04-03T16:26:34.620Z,1010.31
2017-04-03T16:27:34.656Z,1010.3
2017-04-03T16:28:34.695Z,1010.31
2017-04-03T16:29:34.734Z,1010.28
2017-04-03T16:30:34.773Z,1010.3
2017-04-03T16:31:34.812Z,1010.3
2017-04-03T16:32:34.850Z,1010.31
2017-04-03T16:33:34.891Z,1010.29
2017-04-03T16:34:34.930Z,1010.3
2017-04-03T16:35:34.969Z,1010.28
2017-04-03T16:36:35.005Z,1010.31
2017-04-03T16:37:35.046Z,1010.3
2017-04-03T16:38:35.082Z,1010.26
2017-04-03T16:39:35.122Z,1010.31
2017-04-03T16:40:35.163Z,1010.31
2017-04-03T16:41:35.201Z,1010.33
2017-04-03T16:42:35.238Z,1010.3
2017-04-03T16:43:35.276Z,1010.28
2017-04-03T16:44:35.314Z,1010.27
2017-04-03T16:45:35.354Z,1010.29
2017-04-03T16:46:35.395Z,1010.3
2017-04-03T16:47:35.432Z,1010.35
2017-04-03T16:48:35.469Z,1010.32
2017-04-03T16:49:35.510Z,1010.32
2017-04-03T16:50:35.547Z,1010.38
2017-04-03T16:51:35.587Z,1010.35
2017-04-03T16:52:35.625Z,1010.35
2017-04-03T16:53:35.666Z,1010.32
2017-04-03T16:54:35.700Z,1010.38
2017-04-03T16:55:35.741Z,1010.36
2017-04-03T16:56:35.778Z,1010.38
2017-04-03T16:57:35.819Z,1010.35
2017-04-03T16:58:35.855Z,1010.42
2017-04-03T16:59:35.894Z,1010.42
2017-04-03T17:00:35.933Z,1010.44
2017-04-03T17:01:35.971Z,1010.44
2017-04-03T17:02:36.008Z,1010.46
2017-04-03T17:03:36.048Z,1010.42
2017-04-03T17:04:36.088Z,1010.41
2017-04-03T17:05:36.125Z,1010.42
2017-04-03T17:06:36.162Z,1010.42
2017-04-03T17:07:36.203Z,1010.43
2017-04-03T17:08:36.241Z,1010.42
2017-04-03T17:09:36.280Z,1010.45
2017-04-03T17:10:36.317Z,1010.41
2017-04-03T17:11:36.354Z,1010.39
2017-04-03T17:12:36.391Z,1010.41
2017-04-03T17:13:36.432Z,1010.44
2017-04-03T17:14:36.468Z,1010.45
2017-04-03T17:15:36.509Z,1010.41
2017-04-03T17:16:36.545Z,1010.46
2017-04-03T17:17:36.582Z,1010.43
2017-04-03T17:18:36.623Z,1010.43
2017-04-03T17:19:36.661Z,1010.42
2017-04-03T17:20:36.700Z,1010.43
2017-04-03T17:21:36.736Z,1010.41
2017-04-03T17:22:36.774Z,1010.41
2017-04-03T17:23:36.811Z,1010.45
2017-04-03T17:24:36.859Z,1010.43
2017-04-03T17:25:36.889Z,1010.44
2017-04-03T17:26:36.928Z,1010.4
2017-04-03T17:27:36.966Z,1010.43
2017-04-03T17:28:37.001Z,1010.42
2017-04-03T17:29:37.042Z,1010.48
2017-04-03T17:30:37.076Z,1010.46
2017-04-03T17:31:37.116Z,1010.48
2017-04-03T17:32:37.153Z,1010.44
2017-04-03T17:33:37.193Z,1010.46
2017-04-03T17:34:37.231Z,1010.44
2017-04-03T17:35:37.270Z,1010.42
2017-04-03T17:36:37.308Z,1010.43
2017-04-03T17:37:37.346Z,1010.4
2017-04-03T17:38:37.381Z,1010.42
2017-04-03T17:39:37.419Z,1010.41
2017-04-03T17:40:37.457Z,1010.41
2017-04-03T17:41:37.495Z,1010.39
2017-04-03T17:42:37.535Z,1010.42
2017-04-03T17:43:37.572Z,1010.4
2017-04-03T17:44:37.609Z,1010.44
2017-04-03T17:45:37.646Z,1010.41
2017-04-03T17:46:37.686Z,1010.43
2017-04-03T17:47:37.725Z,1010.4
2017-04-03T17:48:37.760Z,1010.43
2017-04-03T17:49:37.798Z,1010.45
2017-04-03T17:50:37.836Z,1010.44
2017-04-03T17:51:37.876Z,1010.45
2017-04-03T17:52:37.912Z,1010.49
2017-04-03T17:53:37.950Z,1010.48
2017-04-03T17:54:37.988Z,1010.49
2017-04-03T17:55:38.026Z,1010.52
2017-04-03T17:56:38.062Z,1010.55
2017-04-03T17:57:38.102Z,1010.51
2017-04-03T17:58:38.140Z,1010.53
2017-04-03T17:59:38.179Z,1010.55
2017-04-03T18:00:38.214Z,1010.51
2017-04-03T18:01:38.251Z,1010.5
2017-04-03T18:02:38.292Z,1010.53
2017-04-03T18:03:38.331Z,1010.53
2017-04-03T18:04:38.366Z,1010.53
2017-04-03T18:05:38.405Z,1010.54
2017-04-03T18:06:38.440Z,1010.57
2017-04-03T18:07:38.479Z,1010.51
2017-04-03T18:08:38.515Z,1010.59
2017-04-03T18:09:38.555Z,1010.57
2017-04-03T18:10:38.593Z,1010.56
2017-04-03T18:11:38.628Z,1010.63
2017-04-03T18:12:38.666Z,1010.61
2017-04-03T18:13:38.704Z,1010.62
2017-04-03T18:14:38.740Z,1010.65
2017-04-03T18:15:38.781Z,1010.63
2017-04-03T18:16:38.819Z,1010.68
2017-04-03T18:17:38.859Z,1010.7
2017-04-03T18:18:38.891Z,1010.65
2017-04-03T18:19:38.931Z,1010.7
2017-04-03T18:20:38.968Z,1010.7
2017-04-03T18:21:39.005Z,1010.74
2017-04-03T18:22:39.044Z,1010.74
2017-04-03T18:23:39.081Z,1010.72
2017-04-03T18:24:39.118Z,1010.77
2017-04-03T18:25:39.155Z,1010.78
2017-04-03T18:26:39.193Z,1010.78
2017-04-03T18:27:39.231Z,1010.79
2017-04-03T18:28:39.270Z,1010.78
2017-04-03T18:29:39.306Z,1010.81
2017-04-03T18:30:39.343Z,1010.85
2017-04-03T18:31:39.380Z,1010.82
2017-04-03T18:32:39.418Z,1010.85
2017-04-03T18:33:39.458Z,1010.87
2017-04-03T18:34:39.493Z,1010.91
2017-04-03T18:35:39.533Z,1010.89
2017-04-03T18:36:39.568Z,1010.9
2017-04-03T18:37:39.607Z,1010.92
2017-04-03T18:38:39.646Z,1010.95
2017-04-03T18:39:39.681Z,1010.95
2017-04-03T18:40:39.721Z,1010.97
2017-04-03T18:41:39.758Z,1010.96
2017-04-03T18:42:39.794Z,1010.94
2017-04-03T18:43:39.834Z,1010.95
2017-04-03T18:44:39.876Z,1010.97
2017-04-03T18:45:39.909Z,1010.98
2017-04-03T18:46:39.944Z,1010.97
2017-04-03T18:47:39.981Z,1010.96
2017-04-03T18:48:40.025Z,1011
2017-04-03T18:49:40.060Z,1010.98
2017-04-03T18:50:40.094Z,1011.02
2017-04-03T18:51:40.134Z,1010.97
2017-04-03T18:52:40.171Z,1011.01
2017-04-03T18:53:40.208Z,1010.99
2017-04-03T18:54:40.248Z,1011.02
2017-04-03T18:55:40.287Z,1011.03
2017-04-03T18:56:40.320Z,1010.99
2017-04-03T18:57:40.360Z,1011.01
2017-04-03T18:58:40.394Z,1011.03
2017-04-03T18:59:40.431Z,1011.02
2017-04-03T19:00:40.472Z,1011.04
2017-04-03T19:01:40.508Z,1011.04
2017-04-03T19:02:40.544Z,1011
2017-04-03T19:03:40.585Z,1011.03
2017-04-03T19:04:40.619Z,1011.03
2017-04-03T19:05:40.659Z,1011.02
2017-04-03T19:06:40.694Z,1010.99
2017-04-03T19:07:40.732Z,1010.99
2017-04-03T19:08:40.771Z,1010.98
2017-04-03T19:09:40.807Z,1010.99